createdAt,value
2019-02-15T00:02:04.385Z,24.60
2019-02-15T00:04:33.226Z,26.20
2019-02-15T00:07:02.826Z,24.03
2019-02-15T00:09:32.405Z,26.57
2019-02-15T00:12:01.237Z,26.00
2019-02-15T00:14:30.825Z,22.97
2019-02-15T00:16:59.692Z,21.70
2019-02-15T00:19:32.291Z,24.45
2019-02-15T00:22:01.144Z,22.03
2019-02-15T00:24:29.980Z,24.63
2019-02-15T00:26:59.559Z,23.60
2019-02-15T00:29:28.426Z,22.37
2019-02-15T00:31:57.243Z,22.83
2019-02-15T00:34:26.213Z,22.40
2019-02-15T00:36:54.924Z,24.83
2019-02-15T00:39:23.761Z,21.73
2019-02-15T00:41:52.618Z,21.27
2019-02-15T00:44:21.458Z,23.43
2019-02-15T00:46:51.167Z,24.55
2019-02-15T00:49:20.005Z,25.07
2019-02-15T00:51:50.346Z,23.63
2019-02-15T00:54:20.994Z,24.27
2019-02-15T00:56:56.483Z,21.87
2019-02-15T00:59:28.251Z,25.07
2019-02-15T01:02:03.278Z,22.77
2019-02-15T01:04:32.804Z,24.77
2019-02-15T01:07:02.489Z,18.50
2019-02-15T01:09:31.349Z,25.12
2019-02-15T01:12:03.111Z,22.57
2019-02-15T01:14:31.947Z,21.90
2019-02-15T01:17:00.801Z,23.43
2019-02-15T01:19:29.648Z,25.23
2019-02-15T01:21:58.500Z,23.97
2019-02-15T01:24:27.351Z,22.30
2019-02-15T01:26:56.191Z,23.87
2019-02-15T01:29:28.856Z,22.03
2019-02-15T01:32:00.433Z,23.03
2019-02-15T01:34:29.259Z,22.20
2019-02-15T01:36:58.845Z,18.00
2019-02-15T01:39:27.673Z,23.17
2019-02-15T01:41:56.588Z,21.80
2019-02-15T01:44:25.463Z,22.00
2019-02-15T01:46:54.335Z,29.60
2019-02-15T01:49:23.208Z,29.13
2019-02-15T01:51:51.972Z,24.97
2019-02-15T01:54:20.839Z,24.80
2019-02-15T01:56:49.716Z,23.63
2019-02-15T01:59:18.552Z,24.98
2019-02-15T02:01:47.388Z,24.60
2019-02-15T02:04:16.217Z,26.90
2019-02-15T02:06:45.067Z,25.87
2019-02-15T02:09:13.909Z,24.40
2019-02-15T02:11:42.746Z,25.40
2019-02-15T02:14:11.600Z,23.70
2019-02-15T02:16:40.458Z,23.23
2019-02-15T02:19:10.037Z,21.97
2019-02-15T02:21:38.873Z,20.97
2019-02-15T02:24:07.711Z,21.47
2019-02-15T02:26:36.553Z,21.30
2019-02-15T02:29:05.630Z,25.73
2019-02-15T02:31:34.211Z,22.07
2019-02-15T02:34:03.784Z,22.37
2019-02-15T02:36:45.335Z,21.27
2019-02-15T02:39:14.189Z,23.43
2019-02-15T02:41:43.013Z,22.40
2019-02-15T02:44:11.852Z,24.25
2019-02-15T02:46:40.702Z,21.73
2019-02-15T02:49:09.539Z,23.30
2019-02-15T02:51:38.385Z,21.13
2019-02-15T02:54:07.228Z,22.95
2019-02-15T02:56:36.055Z,22.13
2019-02-15T02:59:04.890Z,20.43
2019-02-15T03:01:33.729Z,20.70
2019-02-15T03:04:02.577Z,22.92
2019-02-15T03:06:32.162Z,23.07
2019-02-15T03:09:01.590Z,20.67
2019-02-15T03:11:30.417Z,21.20
2019-02-15T03:14:08.989Z,21.23
2019-02-15T03:16:28.858Z,20.63
2019-02-15T03:18:57.695Z,20.80
2019-02-15T03:21:26.543Z,21.10
2019-02-15T03:23:55.388Z,20.77
2019-02-15T03:26:24.219Z,21.55
2019-02-15T03:28:53.830Z,21.43
2019-02-15T03:31:22.684Z,20.97
2019-02-15T03:33:51.508Z,21.37
2019-02-15T03:36:21.834Z,20.37
2019-02-15T03:38:51.423Z,19.73
2019-02-15T03:41:26.059Z,19.60
2019-02-15T03:43:54.904Z,20.03
2019-02-15T03:46:23.737Z,20.83
2019-02-15T03:48:53.300Z,21.27
2019-02-15T03:51:22.145Z,22.80
2019-02-15T03:53:51.736Z,21.60
2019-02-15T03:56:20.579Z,19.70
2019-02-15T03:58:49.423Z,20.47
2019-02-15T04:01:19.005Z,20.40
2019-02-15T04:03:47.835Z,21.90
2019-02-15T04:06:16.709Z,20.53
2019-02-15T04:08:45.536Z,22.30
2019-02-15T04:11:14.371Z,19.27
2019-02-15T04:13:43.238Z,19.13
2019-02-15T04:16:12.062Z,19.50
2019-02-15T04:18:41.646Z,18.87
2019-02-15T04:21:10.481Z,20.00
2019-02-15T04:23:39.333Z,20.17
2019-02-15T04:26:08.173Z,19.97
2019-02-15T04:28:37.061Z,18.60
2019-02-15T04:31:05.919Z,20.10
2019-02-15T04:33:35.499Z,19.80
2019-02-15T04:36:17.193Z,19.80
2019-02-15T04:38:46.057Z,21.17
2019-02-15T04:41:14.905Z,23.15
2019-02-15T04:43:43.791Z,20.83
2019-02-15T04:46:12.678Z,21.20
2019-02-15T04:48:41.506Z,20.80
2019-02-15T04:51:10.394Z,18.83
2019-02-15T04:53:39.245Z,19.87
2019-02-15T04:56:08.107Z,21.23
2019-02-15T04:58:36.962Z,21.60
2019-02-15T05:01:05.820Z,21.70
2019-02-15T05:03:34.705Z,20.63
2019-02-15T05:06:03.558Z,21.27
2019-02-15T05:08:32.438Z,20.27
2019-02-15T05:11:01.280Z,21.93
2019-02-15T05:13:30.134Z,20.47
2019-02-15T05:15:59.111Z,21.20
2019-02-15T05:18:27.965Z,19.97
2019-02-15T05:20:56.804Z,22.77
2019-02-15T05:23:25.714Z,22.47
2019-02-15T05:25:54.570Z,22.53
2019-02-15T05:28:23.471Z,19.93
2019-02-15T05:30:52.306Z,20.97
2019-02-15T05:33:21.163Z,22.10
2019-02-15T05:35:50.028Z,21.20
2019-02-15T05:38:18.883Z,20.47
2019-02-15T05:40:47.727Z,21.43
2019-02-15T05:43:16.565Z,22.20
2019-02-15T05:45:46.149Z,21.67
2019-02-15T05:48:15.003Z,19.97
2019-02-15T05:50:43.838Z,20.60
2019-02-15T05:53:12.683Z,20.80
2019-02-15T05:55:41.534Z,22.03
2019-02-15T05:58:10.390Z,20.93
2019-02-15T06:00:39.231Z,20.33
2019-02-15T06:03:08.076Z,20.67
2019-02-15T06:05:36.931Z,20.33
2019-02-15T06:08:05.768Z,21.67
2019-02-15T06:10:34.646Z,19.80
2019-02-15T06:13:03.478Z,21.43
2019-02-15T06:15:32.330Z,22.92
2019-02-15T06:18:01.185Z,20.93
2019-02-15T06:20:30.049Z,20.63
2019-02-15T06:22:58.901Z,21.57
2019-02-15T06:25:27.765Z,20.20
2019-02-15T06:27:57.354Z,19.33
2019-02-15T06:30:26.219Z,20.43
2019-02-15T06:32:55.085Z,21.83
2019-02-15T06:35:23.932Z,20.00
2019-02-15T06:37:52.795Z,21.80
2019-02-15T06:40:21.631Z,22.83
2019-02-15T06:42:50.507Z,21.23
2019-02-15T06:45:24.595Z,21.07
2019-02-15T06:47:48.173Z,20.23
2019-02-15T06:50:17.035Z,22.23
2019-02-15T06:52:45.872Z,24.15
2019-02-15T06:55:15.474Z,21.30
2019-02-15T06:57:44.354Z,21.67
2019-02-15T07:00:13.177Z,22.63
2019-02-15T07:02:42.030Z,21.43
2019-02-15T07:05:14.774Z,21.87
2019-02-15T07:07:43.638Z,21.90
2019-02-15T07:10:12.486Z,21.73
2019-02-15T07:12:41.348Z,21.37
2019-02-15T07:15:10.200Z,24.63
2019-02-15T07:17:39.096Z,22.90
2019-02-15T07:20:07.953Z,21.93
2019-02-15T07:22:36.843Z,22.20
2019-02-15T07:25:06.493Z,22.13
2019-02-15T07:27:35.313Z,22.33
2019-02-15T07:30:04.201Z,22.87
2019-02-15T07:32:33.012Z,23.13
2019-02-15T07:35:01.915Z,21.37
2019-02-15T07:37:30.742Z,22.97
2019-02-15T07:39:59.594Z,22.37
2019-02-15T07:42:28.503Z,22.00
2019-02-15T07:44:57.355Z,26.58
2019-02-15T07:47:26.229Z,23.73
2019-02-15T07:49:55.074Z,24.03
2019-02-15T07:52:23.936Z,23.33
2019-02-15T07:54:52.749Z,24.23
2019-02-15T07:57:21.597Z,22.60
2019-02-15T07:59:50.619Z,23.50
2019-02-15T08:02:19.294Z,22.27
2019-02-15T08:04:48.144Z,21.43
2019-02-15T08:07:16.988Z,23.73
2019-02-15T08:09:45.846Z,21.30
2019-02-15T08:12:14.731Z,21.53
2019-02-15T08:14:43.596Z,22.00
2019-02-15T08:17:12.458Z,22.37
2019-02-15T08:19:41.325Z,22.60
2019-02-15T08:22:10.128Z,21.03
2019-02-15T08:24:39.036Z,21.70
2019-02-15T08:27:07.911Z,22.30
2019-02-15T08:29:36.766Z,21.07
2019-02-15T08:32:05.611Z,21.93
2019-02-15T08:34:34.476Z,21.47
2019-02-15T08:37:03.330Z,23.65
2019-02-15T08:39:32.205Z,23.07
2019-02-15T08:42:03.904Z,23.13
2019-02-15T08:44:29.866Z,22.30
2019-02-15T08:46:58.767Z,21.30
2019-02-15T08:49:27.595Z,20.83
2019-02-15T08:51:57.216Z,21.60
2019-02-15T08:54:26.057Z,23.67
2019-02-15T08:56:54.902Z,22.00
2019-02-15T08:59:23.788Z,21.67
2019-02-15T09:01:58.392Z,22.37
2019-02-15T09:04:27.255Z,21.47
2019-02-15T09:06:56.124Z,21.73
2019-02-15T09:09:25.007Z,19.77
2019-02-15T09:11:53.876Z,21.37
2019-02-15T09:14:22.679Z,21.50
2019-02-15T09:16:51.556Z,21.57
2019-02-15T09:19:20.410Z,22.57
2019-02-15T09:21:49.282Z,21.77
2019-02-15T09:24:18.149Z,21.73
2019-02-15T09:26:47.041Z,19.93
2019-02-15T09:29:15.934Z,22.10
2019-02-15T09:31:44.763Z,23.58
2019-02-15T09:34:13.620Z,21.70
2019-02-15T09:36:42.488Z,21.47
2019-02-15T09:39:11.340Z,20.13
2019-02-15T09:41:40.931Z,21.20
2019-02-15T09:44:09.772Z,22.37
2019-02-15T09:46:38.803Z,20.33
2019-02-15T09:49:08.250Z,21.63
2019-02-15T09:51:37.844Z,23.13
2019-02-15T09:54:06.726Z,22.10
2019-02-15T09:56:35.579Z,22.98
2019-02-15T09:59:04.423Z,23.20
2019-02-15T10:01:33.881Z,22.00
2019-02-15T10:04:02.748Z,21.60
2019-02-15T10:06:31.594Z,21.17
2019-02-15T10:09:00.493Z,20.87
2019-02-15T10:11:29.366Z,22.37
2019-02-15T10:13:58.196Z,19.47
2019-02-15T10:16:30.787Z,19.30
2019-02-15T10:18:55.930Z,18.83
2019-02-15T10:21:24.787Z,20.83
2019-02-15T10:23:53.655Z,18.90
2019-02-15T10:26:22.494Z,18.17
2019-02-15T10:28:51.357Z,18.27
2019-02-15T10:31:20.205Z,18.33
2019-02-15T10:33:49.070Z,18.17
2019-02-15T10:36:18.961Z,17.97
2019-02-15T10:38:46.858Z,17.80
2019-02-15T10:41:15.764Z,17.97
2019-02-15T10:43:45.358Z,16.23
2019-02-15T10:46:15.063Z,17.63
2019-02-15T10:48:43.872Z,20.47
2019-02-15T10:51:13.477Z,20.60
2019-02-15T10:53:43.083Z,18.20
2019-02-15T10:56:12.674Z,17.20
2019-02-15T10:58:41.682Z,18.70
2019-02-15T11:01:10.567Z,16.43
2019-02-15T11:03:39.424Z,18.10
2019-02-15T11:06:08.310Z,17.80
2019-02-15T11:08:37.166Z,17.53
2019-02-15T11:11:06.046Z,17.77
2019-02-15T11:13:34.946Z,17.30
2019-02-15T11:16:04.512Z,17.23
2019-02-15T11:18:34.114Z,18.65
2019-02-15T11:21:02.980Z,18.37
2019-02-15T11:23:31.854Z,18.67
2019-02-15T11:26:00.778Z,18.00
2019-02-15T11:28:29.616Z,17.37
2019-02-15T11:30:58.514Z,16.43
2019-02-15T11:33:27.327Z,14.80
2019-02-15T11:35:57.343Z,16.20
2019-02-15T11:38:26.158Z,15.47
2019-02-15T11:40:55.023Z,16.33
2019-02-15T11:43:23.880Z,16.83
2019-02-15T11:45:52.734Z,15.07
2019-02-15T11:48:21.580Z,12.53
2019-02-15T11:50:50.433Z,15.47
2019-02-15T11:53:19.295Z,13.83
2019-02-15T11:55:48.325Z,14.60
2019-02-15T11:58:17.148Z,14.07
2019-02-15T12:00:46.009Z,12.90
2019-02-15T12:03:14.861Z,13.07
2019-02-15T12:05:43.726Z,14.20
2019-02-15T12:08:12.567Z,13.23
2019-02-15T12:10:41.495Z,12.40
2019-02-15T12:13:10.304Z,12.73
2019-02-15T12:15:39.195Z,11.97
2019-02-15T12:18:08.021Z,11.37
2019-02-15T12:20:36.872Z,11.67
2019-02-15T12:23:05.727Z,12.00
2019-02-15T12:25:34.578Z,11.27
2019-02-15T12:28:03.486Z,12.23
2019-02-15T12:30:32.318Z,12.50
2019-02-15T12:33:01.169Z,12.40
2019-02-15T12:35:30.028Z,11.43
2019-02-15T12:37:59.691Z,12.70
2019-02-15T12:40:28.512Z,11.90
2019-02-15T12:42:57.388Z,12.47
2019-02-15T12:45:26.250Z,12.30
2019-02-15T12:47:55.107Z,11.87
2019-02-15T12:50:24.770Z,11.57
2019-02-15T12:52:53.899Z,11.00
2019-02-15T12:55:22.487Z,10.20
2019-02-15T12:57:52.082Z,10.23
2019-02-15T13:00:21.014Z,11.52
2019-02-15T13:02:49.918Z,11.40
2019-02-15T13:05:18.740Z,11.50
2019-02-15T13:07:47.603Z,12.10
2019-02-15T13:10:17.367Z,10.97
2019-02-15T13:12:46.261Z,11.07
2019-02-15T13:15:15.150Z,11.30
2019-02-15T13:17:43.964Z,11.70
2019-02-15T13:20:12.856Z,10.53
2019-02-15T13:22:41.727Z,11.27
2019-02-15T13:25:10.658Z,11.37
2019-02-15T13:27:39.505Z,10.03
2019-02-15T13:30:10.107Z,9.30
2019-02-15T13:32:38.932Z,8.20
2019-02-15T13:35:07.805Z,9.20
2019-02-15T13:37:36.629Z,7.70
2019-02-15T13:40:05.540Z,7.90
2019-02-15T13:42:34.362Z,7.20
2019-02-15T13:45:03.263Z,7.07
2019-02-15T13:47:34.648Z,7.33
2019-02-15T13:50:01.042Z,6.77
2019-02-15T13:52:29.875Z,8.13
2019-02-15T13:54:58.739Z,9.77
2019-02-15T13:57:27.616Z,7.43
2019-02-15T13:59:57.241Z,7.07
2019-02-15T14:02:26.095Z,7.37
2019-02-15T14:04:54.985Z,7.07
2019-02-15T14:07:23.809Z,7.73
2019-02-15T14:09:52.659Z,7.00
2019-02-15T14:12:21.528Z,6.87
2019-02-15T14:14:50.388Z,7.10
2019-02-15T14:17:19.255Z,6.80
2019-02-15T14:19:48.117Z,7.00
2019-02-15T14:22:16.996Z,7.03
2019-02-15T14:24:45.875Z,6.63
2019-02-15T14:27:14.706Z,7.40
2019-02-15T14:29:43.570Z,6.70
2019-02-15T14:32:12.457Z,8.17
2019-02-15T14:34:41.332Z,8.10
2019-02-15T14:37:10.176Z,7.93
2019-02-15T14:39:39.050Z,7.00
2019-02-15T14:42:07.893Z,7.40
2019-02-15T14:44:36.739Z,6.87
2019-02-15T14:47:05.598Z,7.30
2019-02-15T14:49:34.448Z,7.07
2019-02-15T14:52:03.306Z,6.47
2019-02-15T14:54:32.142Z,6.57
2019-02-15T14:57:01.028Z,7.37
2019-02-15T14:59:30.185Z,6.70
2019-02-15T15:01:59.017Z,7.50
2019-02-15T15:04:27.869Z,7.53
2019-02-15T15:06:56.738Z,7.70
2019-02-15T15:09:25.600Z,7.73
2019-02-15T15:11:54.486Z,7.03
2019-02-15T15:14:23.346Z,7.00
2019-02-15T15:16:53.125Z,7.07
2019-02-15T15:19:21.822Z,6.97
2019-02-15T15:21:50.707Z,7.30
2019-02-15T15:24:20.342Z,7.47
2019-02-15T15:26:49.953Z,7.70
2019-02-15T15:29:18.821Z,6.60
2019-02-15T15:31:47.711Z,6.47
2019-02-15T15:34:16.591Z,6.43
2019-02-15T15:36:45.467Z,7.47
2019-02-15T15:39:14.339Z,6.60
2019-02-15T15:44:16.999Z,7.70
2019-02-15T15:46:45.863Z,6.83
2019-02-15T15:49:16.733Z,7.17
2019-02-15T15:51:43.551Z,7.03
2019-02-15T15:54:12.386Z,6.60
2019-02-15T15:56:41.235Z,7.13
2019-02-15T15:59:10.105Z,7.73
2019-02-15T16:01:38.983Z,8.50
2019-02-15T16:04:07.860Z,9.83
2019-02-15T16:06:37.420Z,11.17
2019-02-15T16:09:06.299Z,10.87
2019-02-15T16:11:35.150Z,11.70
2019-02-15T16:14:04.011Z,11.13
2019-02-15T16:16:33.647Z,11.30
2019-02-15T16:19:02.471Z,11.27
2019-02-15T16:21:31.333Z,12.10
2019-02-15T16:24:00.192Z,12.35
2019-02-15T16:26:29.039Z,10.17
2019-02-15T16:28:57.904Z,11.60
2019-02-15T16:31:26.740Z,10.47
2019-02-15T16:33:56.367Z,10.50
2019-02-15T16:36:25.300Z,10.20
2019-02-15T16:38:54.067Z,10.07
2019-02-15T16:41:22.907Z,9.63
2019-02-15T16:43:52.516Z,10.00
2019-02-15T16:46:22.098Z,10.27
2019-02-15T16:48:50.942Z,10.47
2019-02-15T16:51:19.792Z,11.37
2019-02-15T16:53:49.245Z,11.07
2019-02-15T16:56:18.078Z,9.50
2019-02-15T16:58:46.911Z,10.50
2019-02-15T17:01:15.751Z,10.80
2019-02-15T17:03:44.663Z,10.77
2019-02-15T17:06:13.457Z,11.30
2019-02-15T17:08:43.035Z,10.47
2019-02-15T17:11:11.876Z,9.13
2019-02-15T17:13:40.711Z,10.17
2019-02-15T17:16:10.137Z,9.40
2019-02-15T17:18:38.982Z,9.17
2019-02-15T17:21:07.840Z,10.30
2019-02-15T17:23:36.673Z,9.43
2019-02-15T17:26:05.516Z,6.87
2019-02-15T17:28:34.357Z,9.10
2019-02-15T17:31:03.207Z,9.27
2019-02-15T17:33:32.045Z,9.97
2019-02-15T17:36:00.908Z,9.37
2019-02-15T17:38:29.742Z,9.10
2019-02-15T17:40:59.366Z,9.13
2019-02-15T17:43:28.178Z,9.82
2019-02-15T17:45:57.018Z,10.00
2019-02-15T17:48:26.603Z,9.37
2019-02-15T17:50:55.424Z,8.67
2019-02-15T17:53:24.255Z,9.00
2019-02-15T17:55:53.094Z,9.77
2019-02-15T17:58:22.673Z,9.20
2019-02-15T18:00:51.523Z,10.53
2019-02-15T18:03:20.358Z,9.63
2019-02-15T18:05:49.193Z,9.53
2019-02-15T18:08:18.062Z,11.90
2019-02-15T18:10:47.659Z,15.73
2019-02-15T18:13:16.503Z,18.40
2019-02-15T18:15:45.481Z,34.37
2019-02-15T18:18:14.336Z,29.03
2019-02-15T18:20:43.212Z,27.30
2019-02-15T18:23:12.048Z,28.23
2019-02-15T18:25:40.891Z,30.93
2019-02-15T18:28:09.736Z,26.47
2019-02-15T18:30:38.569Z,29.07
2019-02-15T18:33:07.427Z,34.83
2019-02-15T18:35:36.267Z,42.90
2019-02-15T18:38:05.129Z,37.73
2019-02-15T18:40:33.969Z,23.63
2019-02-15T18:43:02.823Z,24.93
2019-02-15T18:45:31.657Z,23.87
2019-02-15T18:48:00.506Z,20.83
2019-02-15T18:50:30.110Z,22.37
2019-02-15T18:52:59.698Z,24.70
2019-02-15T18:55:28.552Z,21.07
2019-02-15T18:57:57.392Z,20.13
2019-02-15T19:00:26.984Z,20.73
2019-02-15T19:02:55.827Z,20.73
2019-02-15T19:05:24.683Z,18.07
2019-02-15T19:07:54.129Z,19.80
2019-02-15T19:10:23.018Z,20.10
2019-02-15T19:12:52.569Z,18.83
2019-02-15T19:15:21.447Z,19.17
2019-02-15T19:17:50.297Z,16.27
2019-02-15T19:20:19.140Z,17.73
2019-02-15T19:22:48.609Z,15.63
2019-02-15T19:25:17.519Z,14.97
2019-02-15T19:27:46.404Z,14.40
2019-02-15T19:30:15.226Z,13.53
2019-02-15T19:32:44.374Z,14.30
2019-02-15T19:35:13.164Z,14.47
2019-02-15T19:37:41.978Z,12.17
2019-02-15T19:40:11.582Z,12.50
2019-02-15T19:42:40.463Z,12.73
2019-02-15T19:45:09.428Z,12.10
2019-02-15T19:47:38.169Z,12.07
2019-02-15T19:50:08.854Z,12.70
2019-02-15T19:52:37.659Z,13.85
2019-02-15T19:55:06.560Z,12.90
2019-02-15T19:57:35.394Z,13.37
2019-02-15T20:00:04.297Z,14.63
2019-02-15T20:02:33.844Z,14.33
2019-02-15T20:05:02.692Z,15.85
2019-02-15T20:07:31.557Z,14.07
2019-02-15T20:10:01.149Z,12.73
2019-02-15T20:12:30.067Z,12.10
2019-02-15T20:14:58.877Z,12.93
2019-02-15T20:17:27.755Z,11.43
2019-02-15T20:19:56.622Z,11.50
2019-02-15T20:22:26.210Z,11.87
2019-02-15T20:24:55.102Z,11.17
2019-02-15T20:27:23.947Z,10.67
2019-02-15T20:29:52.828Z,10.50
2019-02-15T20:32:21.676Z,10.50
2019-02-15T20:34:50.565Z,10.40
2019-02-15T20:37:20.153Z,12.00
2019-02-15T20:39:49.007Z,10.80
2019-02-15T20:42:17.851Z,11.68
2019-02-15T20:44:46.694Z,9.90
2019-02-15T20:47:15.716Z,9.10
2019-02-15T20:49:44.533Z,9.87
2019-02-15T20:52:13.413Z,10.47
2019-02-15T20:54:42.993Z,10.40
2019-02-15T20:57:11.862Z,10.90
2019-02-15T20:59:40.708Z,9.90
2019-02-15T21:02:09.567Z,9.77
2019-02-15T21:04:38.433Z,10.30
2019-02-15T21:07:07.409Z,12.45
2019-02-15T21:09:36.255Z,10.97
2019-02-15T21:12:05.850Z,10.53
2019-02-15T21:14:35.280Z,11.52
2019-02-15T21:17:04.122Z,13.02
2019-02-15T21:19:32.966Z,12.40
2019-02-15T21:22:01.874Z,12.57
2019-02-15T21:24:31.456Z,12.47
2019-02-15T21:27:01.039Z,13.90
2019-02-15T21:29:29.902Z,13.53
2019-02-15T21:31:58.768Z,15.00
2019-02-15T21:34:27.610Z,14.80
2019-02-15T21:36:57.188Z,14.53
2019-02-15T21:39:26.051Z,16.45
2019-02-15T21:41:54.919Z,14.90
2019-02-15T21:44:23.778Z,15.40
2019-02-15T21:46:53.234Z,15.80
2019-02-15T21:49:22.109Z,17.12
2019-02-15T21:51:50.946Z,15.60
2019-02-15T21:54:19.811Z,14.53
2019-02-15T21:56:48.692Z,16.27
2019-02-15T21:59:17.566Z,16.60
2019-02-15T22:01:46.436Z,16.50
2019-02-15T22:04:16.002Z,18.47
2019-02-15T22:06:44.846Z,20.48
2019-02-15T22:09:13.709Z,18.33
2019-02-15T22:11:43.180Z,16.13
2019-02-15T22:14:12.020Z,16.08
2019-02-15T22:16:41.606Z,16.40
2019-02-15T22:19:10.465Z,15.27
2019-02-15T22:21:39.350Z,14.37
2019-02-15T22:24:08.883Z,14.47
2019-02-15T22:26:37.748Z,14.87
2019-02-15T22:29:06.636Z,15.17
2019-02-15T22:31:35.469Z,14.43
2019-02-15T22:34:05.067Z,13.67
2019-02-15T22:36:33.912Z,13.90
2019-02-15T22:39:02.755Z,14.57
2019-02-15T22:41:32.340Z,14.30
2019-02-15T22:44:01.186Z,13.50
2019-02-15T22:46:30.019Z,13.47
2019-02-15T22:48:58.850Z,12.60
2019-02-15T22:51:27.703Z,12.43
2019-02-15T22:53:56.549Z,12.13
2019-02-15T22:56:25.387Z,11.90
2019-02-15T22:58:54.237Z,13.40
2019-02-15T23:01:23.073Z,13.35
2019-02-15T23:03:51.921Z,12.17
2019-02-15T23:06:20.759Z,12.60
2019-02-15T23:08:50.331Z,13.17
2019-02-15T23:11:19.177Z,12.57
2019-02-15T23:13:48.115Z,13.37
2019-02-15T23:16:17.637Z,13.07
2019-02-15T23:18:46.472Z,13.77
2019-02-15T23:21:15.336Z,13.07
2019-02-15T23:23:44.166Z,14.03
2019-02-15T23:26:13.013Z,13.53
2019-02-15T23:28:41.870Z,13.00
2019-02-15T23:31:10.757Z,14.10
2019-02-15T23:33:39.644Z,13.95
2019-02-15T23:36:08.483Z,13.50
2019-02-15T23:38:37.347Z,12.47
2019-02-15T23:41:06.960Z,12.60
2019-02-15T23:43:36.549Z,12.50
2019-02-15T23:46:05.417Z,12.60
2019-02-15T23:48:34.249Z,11.73
2019-02-15T23:51:03.083Z,12.17
2019-02-15T23:53:31.936Z,12.03
2019-02-15T23:56:00.773Z,12.70
2019-02-15T23:58:29.643Z,11.70
